الصفحة الرئيسية
METAR-TAF:

METAR-TAF

مطار :

بنغالور, الهند

دائرة عرض: 12-57-00N, خط طول: 077-40-06E, ارتفاع: 888 متر

مراقبة الطقس الحالي

تاريخ ووقت الإصدار 36 دقيقة قبل الساعة 08:30UTC
ريح 8 عقدة من الشرق
درجة الحرارة 26°درجة مئوية
الرطوبة 61%
ضغط 1014 hPa
الرؤية: 6000 متر
غيوم متفرقة على ارتفاع 1200 قدم
غيوم متفرقة على ارتفاع 1800 قدم

METAR: VOBG 260830Z 09008KT 6000 SCT012 SCT018 26/18 Q1014 NOSIG

زمن: 14:36 (09:06 UTC)

توقعات

تاريخ ووقت الإصدار 1ساعة و 6 دقيقة قبل الساعة 08:00UTC
التوقعات صالحة من26 الساعة 09 UTC إلى 26 الساعة 18 UTC
ريح 5 عقدة من الشرق/الشمال الشرقي
الرؤية: 6000 متر
غيوم متفرقة على ارتفاع 1500 قدم

TAF: VOBG 260800Z 2609/2618 07005KT 6000 SCT015

أرصاد الطقس والتوقعات من أكثر من 4000 مطار (تقارير الطقس للمطار METAR والتنبؤ بالطقس بالمطارTAF).

المحطات المتاحة هي النقط الصفراء والحمراء على الخريطة.

حرك المؤشر فوق النقطة لمعرفة اسم المحطة.

ثم انقر لمعرفة أرصاد وتوقعات الطقس.

لتغيير الخارطة: اضغط على الأزرار الخضراء مع رمز الصليب الأسود للتكبير. على الزر الأخضر مع شرطة للتصغير، أو على الأسهم الخضراء للخرائط المجاورة.


METAR-TAF: